createdAt,value
2022-11-27T00:01:48.802Z,6.33
2022-11-27T00:04:19.572Z,6.23
2022-11-27T00:06:50.036Z,6.22
2022-11-27T00:09:20.291Z,6.25
2022-11-27T00:11:50.932Z,6.28
2022-11-27T00:14:24.300Z,6.32
2022-11-27T00:16:54.626Z,6.31
2022-11-27T00:19:28.001Z,6.40
2022-11-27T00:21:58.891Z,6.38
2022-11-27T00:24:28.905Z,6.38
2022-11-27T00:26:59.705Z,6.40
2022-11-27T00:29:32.837Z,6.40
2022-11-27T00:32:03.445Z,6.30
2022-11-27T00:34:34.166Z,6.32
2022-11-27T00:37:04.673Z,6.24
2022-11-27T00:39:34.982Z,6.19
2022-11-27T00:42:05.449Z,6.22
2022-11-27T00:44:38.510Z,6.21
2022-11-27T00:47:08.959Z,6.26
2022-11-27T00:49:39.105Z,6.32
2022-11-27T00:52:09.437Z,6.35
2022-11-27T00:54:40.129Z,6.28
2022-11-27T00:57:10.660Z,6.31
2022-11-27T00:59:43.278Z,6.37
2022-11-27T01:02:14.191Z,6.43
2022-11-27T01:04:44.272Z,6.45
2022-11-27T01:07:14.799Z,6.39
2022-11-27T01:09:45.098Z,6.33
2022-11-27T01:12:15.597Z,6.33
2022-11-27T01:14:48.370Z,6.39
2022-11-27T01:17:18.770Z,6.35
2022-11-27T01:19:48.652Z,6.33
2022-11-27T01:22:19.014Z,6.34
2022-11-27T01:24:49.038Z,6.32
2022-11-27T01:27:19.311Z,6.29
2022-11-27T01:29:51.845Z,6.31
2022-11-27T01:32:22.086Z,6.28
2022-11-27T01:34:54.356Z,6.28
2022-11-27T01:37:24.844Z,6.29
2022-11-27T01:39:54.978Z,6.27
2022-11-27T01:42:25.400Z,6.29
2022-11-27T01:44:59.021Z,6.29
2022-11-27T01:47:35.517Z,6.25
2022-11-27T01:50:14.283Z,6.22
2022-11-27T01:52:50.519Z,6.22
2022-11-27T01:55:26.341Z,6.19
2022-11-27T01:58:02.402Z,6.17
2022-11-27T02:00:35.945Z,6.15
2022-11-27T02:03:06.457Z,6.15
2022-11-27T02:05:36.714Z,6.13
2022-11-27T02:08:10.550Z,6.13
2022-11-27T02:10:49.397Z,6.13
2022-11-27T02:13:25.991Z,6.16
2022-11-27T02:16:06.124Z,6.13
2022-11-27T02:18:45.315Z,6.07
2022-11-27T02:21:22.493Z,6.13
2022-11-27T02:24:03.899Z,6.09
2022-11-27T02:26:52.951Z,6.07
2022-11-27T02:29:29.446Z,6.07
2022-11-27T02:32:04.321Z,6.03
2022-11-27T02:34:40.915Z,6.04
2022-11-27T02:37:15.826Z,6.07
2022-11-27T02:39:52.952Z,6.03
2022-11-27T02:42:24.308Z,5.97
2022-11-27T02:45:03.362Z,5.97
2022-11-27T02:47:34.698Z,5.94
2022-11-27T02:50:06.473Z,5.90
2022-11-27T02:52:36.559Z,5.84
2022-11-27T02:55:14.472Z,5.78
2022-11-27T02:57:46.183Z,5.42
2022-11-27T03:00:20.552Z,5.58
2022-11-27T03:02:56.925Z,5.57
2022-11-27T03:05:31.333Z,5.60
2022-11-27T03:08:07.563Z,5.55
2022-11-27T03:10:44.985Z,5.49
2022-11-27T03:13:15.008Z,5.47
2022-11-27T03:15:59.982Z,5.38
2022-11-27T03:18:39.554Z,5.46
2022-11-27T03:21:22.227Z,5.24
2022-11-27T03:23:52.378Z,5.29
2022-11-27T03:26:22.726Z,5.39
2022-11-27T03:28:54.240Z,5.35
2022-11-27T03:31:28.211Z,5.35
2022-11-27T03:33:58.373Z,5.25
2022-11-27T03:36:28.976Z,5.21
2022-11-27T03:38:59.170Z,5.16
2022-11-27T03:41:41.863Z,5.30
2022-11-27T03:44:25.233Z,5.25
2022-11-27T03:47:09.612Z,5.24
2022-11-27T03:49:55.225Z,5.16
2022-11-27T03:52:31.997Z,5.17
2022-11-27T03:55:09.541Z,5.21
2022-11-27T03:57:45.745Z,5.12
2022-11-27T04:00:16.945Z,5.07
2022-11-27T04:02:53.077Z,5.22
2022-11-27T04:05:23.493Z,5.17
2022-11-27T04:07:53.824Z,5.00
2022-11-27T04:10:24.157Z,4.98
2022-11-27T04:12:54.514Z,4.98
2022-11-27T04:15:24.570Z,5.01
2022-11-27T04:17:57.431Z,4.96
2022-11-27T04:20:27.429Z,4.83
2022-11-27T04:22:58.012Z,4.89
2022-11-27T04:25:27.949Z,4.76
2022-11-27T04:27:58.296Z,4.82
2022-11-27T04:30:28.229Z,4.88
2022-11-27T04:33:01.180Z,4.83
2022-11-27T04:35:31.175Z,4.92
2022-11-27T04:38:02.424Z,4.95
2022-11-27T04:40:32.297Z,4.94
2022-11-27T04:43:02.628Z,4.90
2022-11-27T04:45:32.539Z,4.88
2022-11-27T04:48:05.625Z,4.77
2022-11-27T04:50:35.738Z,4.58
2022-11-27T04:53:06.012Z,4.81
2022-11-27T04:55:36.099Z,4.90
2022-11-27T04:58:06.382Z,4.88
2022-11-27T05:00:36.439Z,4.94
2022-11-27T05:03:09.435Z,5.00
2022-11-27T05:05:39.458Z,4.91
2022-11-27T05:08:09.769Z,4.83
2022-11-27T05:10:39.728Z,4.88
2022-11-27T05:13:10.030Z,4.88
2022-11-27T05:15:40.054Z,4.85
2022-11-27T05:18:12.927Z,4.86
2022-11-27T05:20:42.870Z,4.79
2022-11-27T05:23:13.197Z,4.72
2022-11-27T05:25:43.358Z,4.78
2022-11-27T05:28:13.701Z,4.73
2022-11-27T05:30:43.677Z,4.68
2022-11-27T05:33:16.631Z,4.60
2022-11-27T05:35:47.355Z,4.53
2022-11-27T05:38:17.660Z,4.56
2022-11-27T05:40:47.621Z,4.46
2022-11-27T05:43:17.880Z,4.59
2022-11-27T05:45:47.878Z,4.54
2022-11-27T05:48:20.819Z,4.59
2022-11-27T05:50:50.990Z,4.51
2022-11-27T05:53:21.300Z,4.47
2022-11-27T05:55:51.276Z,4.42
2022-11-27T05:58:21.818Z,4.36
2022-11-27T06:00:51.761Z,4.33
2022-11-27T06:03:25.271Z,4.32
2022-11-27T06:05:55.740Z,4.34
2022-11-27T06:08:26.882Z,4.30
2022-11-27T06:10:56.806Z,4.27
2022-11-27T06:13:27.149Z,4.24
2022-11-27T06:15:57.448Z,4.19
2022-11-27T06:18:30.362Z,4.14
2022-11-27T06:21:00.297Z,4.12
2022-11-27T06:23:30.633Z,4.15
2022-11-27T06:26:00.604Z,4.15
2022-11-27T06:28:30.927Z,4.06
2022-11-27T06:31:00.847Z,4.01
2022-11-27T06:33:33.726Z,3.78
2022-11-27T06:36:03.719Z,3.93
2022-11-27T06:38:34.985Z,3.86
2022-11-27T06:41:06.338Z,3.83
2022-11-27T06:43:37.182Z,3.85
2022-11-27T06:46:08.655Z,3.77
2022-11-27T06:48:41.538Z,3.79
2022-11-27T06:51:14.331Z,3.80
2022-11-27T06:53:45.318Z,3.78
2022-11-27T06:56:17.291Z,3.75
2022-11-27T06:58:48.542Z,3.64
2022-11-27T07:01:20.195Z,3.64
2022-11-27T07:03:53.185Z,3.70
2022-11-27T07:06:26.844Z,3.70
2022-11-27T07:08:58.167Z,3.67
2022-11-27T07:11:30.077Z,3.75
2022-11-27T07:14:01.900Z,3.60
2022-11-27T07:16:34.519Z,3.65
2022-11-27T07:19:09.590Z,3.67
2022-11-27T07:21:40.708Z,3.66
2022-11-27T07:24:11.447Z,3.60
2022-11-27T07:26:41.850Z,3.56
2022-11-27T07:29:12.163Z,3.64
2022-11-27T07:31:42.154Z,3.65
2022-11-27T07:34:21.224Z,3.66
2022-11-27T07:36:51.742Z,3.57
2022-11-27T07:39:34.100Z,3.58
2022-11-27T07:42:37.042Z,3.49
2022-11-27T07:45:02.197Z,3.40
2022-11-27T07:47:32.875Z,3.42
2022-11-27T07:50:07.334Z,3.49
2022-11-27T07:52:41.455Z,3.54
2022-11-27T07:55:13.330Z,3.57
2022-11-27T07:57:43.266Z,3.67
2022-11-27T08:00:14.583Z,3.70
2022-11-27T08:02:44.489Z,3.67
2022-11-27T08:05:17.789Z,3.68
2022-11-27T08:07:48.051Z,3.70
2022-11-27T08:10:18.719Z,3.78
2022-11-27T08:12:48.956Z,3.76
2022-11-27T08:15:19.688Z,3.76
2022-11-27T08:17:49.688Z,3.79
2022-11-27T08:20:23.010Z,3.84
2022-11-27T08:23:02.314Z,3.89
2022-11-27T08:25:34.379Z,3.93
2022-11-27T08:28:04.326Z,3.98
2022-11-27T08:30:34.769Z,3.98
2022-11-27T08:33:04.755Z,4.13
2022-11-27T08:35:38.067Z,4.07
2022-11-27T08:38:10.404Z,4.14
2022-11-27T08:40:42.390Z,4.16
2022-11-27T08:43:16.478Z,4.15
2022-11-27T08:45:51.853Z,4.36
2022-11-27T08:48:23.885Z,4.29
2022-11-27T08:51:04.515Z,4.37
2022-11-27T08:53:37.527Z,4.45
2022-11-27T08:56:09.422Z,4.46
2022-11-27T08:58:41.120Z,4.73
2022-11-27T09:01:13.618Z,4.83
2022-11-27T09:03:44.367Z,4.88
2022-11-27T09:06:21.384Z,5.10
2022-11-27T09:08:52.038Z,5.21
2022-11-27T09:11:23.687Z,5.17
2022-11-27T09:13:55.211Z,5.01
2022-11-27T09:16:27.072Z,5.17
2022-11-27T09:18:58.202Z,5.22
2022-11-27T09:21:34.591Z,5.58
2022-11-27T09:24:07.447Z,5.73
2022-11-27T09:26:38.645Z,5.56
2022-11-27T09:29:09.282Z,5.32
2022-11-27T09:31:40.097Z,5.16
2022-11-27T09:34:11.351Z,5.26
2022-11-27T09:36:46.419Z,5.95
2022-11-27T09:39:16.995Z,6.15
2022-11-27T09:41:49.999Z,6.33
2022-11-27T09:44:28.011Z,5.94
2022-11-27T09:47:02.695Z,6.17
2022-11-27T09:49:39.276Z,6.49
2022-11-27T09:52:18.500Z,6.81
2022-11-27T09:54:56.086Z,6.87
2022-11-27T09:57:32.616Z,6.98
2022-11-27T10:00:07.758Z,6.76
2022-11-27T10:02:38.397Z,6.88
2022-11-27T10:05:18.237Z,7.33
2022-11-27T10:08:07.305Z,7.37
2022-11-27T10:10:44.820Z,6.89
2022-11-27T10:13:32.289Z,7.37
2022-11-27T10:16:13.080Z,7.47
2022-11-27T10:18:48.538Z,7.50
2022-11-27T10:21:25.761Z,7.13
2022-11-27T10:24:08.321Z,7.25
2022-11-27T10:26:43.093Z,6.95
2022-11-27T10:29:25.610Z,7.11
2022-11-27T10:32:00.027Z,7.01
2022-11-27T10:34:39.778Z,7.99
2022-11-27T10:37:16.970Z,7.92
2022-11-27T10:39:56.421Z,8.95
2022-11-27T10:42:37.428Z,8.79
2022-11-27T10:45:15.685Z,8.03
2022-11-27T10:47:49.172Z,8.66
2022-11-27T10:50:21.511Z,8.86
2022-11-27T10:52:56.789Z,8.95
2022-11-27T10:56:11.106Z,8.57
2022-11-27T10:59:16.998Z,9.46
2022-11-27T11:02:00.109Z,9.20
2022-11-27T11:04:54.548Z,9.13
2022-11-27T11:07:28.908Z,9.54
2022-11-27T11:10:02.481Z,8.85
2022-11-27T11:12:57.826Z,8.88
2022-11-27T11:15:53.726Z,9.10
2022-11-27T11:18:25.990Z,8.90
2022-11-27T11:20:58.343Z,9.51
2022-11-27T11:23:33.504Z,8.55
2022-11-27T11:26:07.944Z,9.00
2022-11-27T11:28:49.556Z,9.41
2022-11-27T11:31:25.801Z,9.20
2022-11-27T11:34:01.945Z,8.21
2022-11-27T11:36:32.822Z,8.91
2022-11-27T11:39:03.220Z,9.16
2022-11-27T11:41:40.166Z,10.03
2022-11-27T11:44:27.198Z,9.08
2022-11-27T11:46:59.879Z,9.19
2022-11-27T11:49:32.262Z,9.21
2022-11-27T11:52:21.076Z,9.97
2022-11-27T11:55:01.062Z,10.55
2022-11-27T11:57:58.207Z,10.86
2022-11-27T12:01:04.853Z,9.32
2022-11-27T12:09:22.350Z,11.28
2022-11-27T12:13:23.469Z,11.75
2022-11-27T12:17:45.856Z,10.45
2022-11-27T12:25:18.954Z,10.32
2022-11-27T12:28:09.206Z,10.08
2022-11-27T12:31:10.149Z,9.94
2022-11-27T12:35:18.174Z,9.87
2022-11-27T12:38:25.739Z,9.56
2022-11-27T12:41:12.832Z,10.06
2022-11-27T12:43:48.433Z,10.34
2022-11-27T12:46:25.554Z,9.67
2022-11-27T12:49:09.907Z,9.21
2022-11-27T12:51:48.207Z,9.58
2022-11-27T12:54:55.735Z,9.96
2022-11-27T12:57:39.675Z,9.58
2022-11-27T13:00:20.491Z,9.29
2022-11-27T13:03:13.909Z,9.53
2022-11-27T13:05:55.261Z,10.12
2022-11-27T13:08:35.013Z,9.05
2022-11-27T13:11:13.863Z,10.30
2022-11-27T13:13:51.544Z,10.42
2022-11-27T13:16:39.716Z,10.21
2022-11-27T13:19:38.486Z,10.76
2022-11-27T13:22:29.217Z,10.76
2022-11-27T13:25:08.389Z,10.20
2022-11-27T13:27:42.432Z,9.63
2022-11-27T13:30:27.405Z,9.70
2022-11-27T13:33:09.097Z,10.06
2022-11-27T13:35:55.111Z,10.69
2022-11-27T13:39:13.329Z,10.12
2022-11-27T13:41:46.606Z,10.44
2022-11-27T13:44:27.033Z,10.49
2022-11-27T13:47:07.228Z,10.38
2022-11-27T13:49:38.953Z,10.50
2022-11-27T13:52:14.386Z,10.25
2022-11-27T13:54:55.701Z,10.27
2022-11-27T13:57:27.466Z,10.70
2022-11-27T13:59:59.816Z,9.96
2022-11-27T14:02:43.215Z,9.92
2022-11-27T14:05:14.050Z,10.08
2022-11-27T14:07:47.805Z,10.07
2022-11-27T14:10:21.271Z,10.27
2022-11-27T14:12:56.883Z,9.77
2022-11-27T14:15:29.594Z,9.93
2022-11-27T14:18:19.045Z,9.98
2022-11-27T14:20:51.649Z,9.70
2022-11-27T14:23:31.006Z,8.98
2022-11-27T14:26:09.537Z,8.93
2022-11-27T14:28:45.112Z,9.29
2022-11-27T14:31:25.839Z,9.41
2022-11-27T14:34:23.119Z,8.52
2022-11-27T14:36:54.619Z,8.73
2022-11-27T14:39:30.627Z,8.34
2022-11-27T14:42:05.970Z,8.62
2022-11-27T14:44:38.507Z,8.92
2022-11-27T14:47:10.136Z,8.91
2022-11-27T14:49:43.710Z,8.97
2022-11-27T14:52:19.277Z,9.11
2022-11-27T14:54:51.387Z,9.21
2022-11-27T14:57:27.070Z,9.47
2022-11-27T15:00:16.770Z,9.57
2022-11-27T15:02:47.903Z,9.25
2022-11-27T15:05:27.577Z,9.33
2022-11-27T15:08:00.361Z,9.22
2022-11-27T15:10:35.571Z,9.17
2022-11-27T15:13:08.043Z,8.77
2022-11-27T15:15:42.613Z,8.89
2022-11-27T15:18:23.605Z,9.15
2022-11-27T15:20:57.383Z,8.79
2022-11-27T15:23:30.070Z,8.87
2022-11-27T15:26:17.804Z,9.15
2022-11-27T15:28:57.201Z,9.05
2022-11-27T15:31:32.898Z,8.81
2022-11-27T15:34:06.170Z,8.98
2022-11-27T15:36:44.227Z,9.08
2022-11-27T15:39:22.037Z,9.20
2022-11-27T15:41:58.285Z,8.98
2022-11-27T15:44:30.451Z,8.85
2022-11-27T15:47:03.448Z,8.60
2022-11-27T15:49:34.008Z,8.62
2022-11-27T15:52:07.258Z,8.60
2022-11-27T15:54:37.186Z,8.59
2022-11-27T15:57:07.669Z,8.48
2022-11-27T15:59:37.614Z,8.40
2022-11-27T16:02:11.044Z,8.64
2022-11-27T16:04:47.634Z,8.38
2022-11-27T16:07:20.648Z,8.42
2022-11-27T16:09:50.657Z,8.59
2022-11-27T16:12:21.011Z,8.46
2022-11-27T16:14:51.012Z,8.29
2022-11-27T16:17:21.795Z,8.35
2022-11-27T16:19:51.781Z,8.44
2022-11-27T16:22:24.909Z,8.27
2022-11-27T16:24:54.838Z,8.32
2022-11-27T16:27:25.143Z,8.01
2022-11-27T16:29:55.117Z,8.06
2022-11-27T16:32:25.591Z,8.17
2022-11-27T16:34:55.572Z,8.07
2022-11-27T16:37:28.494Z,7.91
2022-11-27T16:39:58.505Z,7.89
2022-11-27T16:42:29.016Z,7.92
2022-11-27T16:44:59.269Z,7.83
2022-11-27T16:47:33.588Z,7.78
2022-11-27T16:50:04.325Z,7.56
2022-11-27T16:52:37.843Z,7.70
2022-11-27T16:55:09.621Z,7.67
2022-11-27T16:57:40.313Z,7.57
2022-11-27T17:00:11.575Z,7.58
2022-11-27T17:02:42.436Z,7.51
2022-11-27T17:05:13.009Z,7.58
2022-11-27T17:07:46.658Z,7.51
2022-11-27T17:10:17.179Z,7.34
2022-11-27T17:12:47.582Z,7.46
2022-11-27T17:15:17.525Z,7.31
2022-11-27T17:17:48.092Z,7.27
2022-11-27T17:20:18.198Z,7.31
2022-11-27T17:22:51.154Z,7.31
2022-11-27T17:25:21.117Z,7.24
2022-11-27T17:27:52.239Z,7.26
2022-11-27T17:30:22.942Z,7.22
2022-11-27T17:32:56.091Z,7.18
2022-11-27T17:35:26.075Z,7.12
2022-11-27T17:37:59.046Z,7.06
2022-11-27T17:40:30.626Z,7.10
2022-11-27T17:43:00.974Z,7.12
2022-11-27T17:45:31.206Z,7.00
2022-11-27T17:48:01.966Z,6.94
2022-11-27T17:50:32.122Z,6.83
2022-11-27T17:53:04.979Z,6.82
2022-11-27T17:55:35.871Z,6.83
2022-11-27T17:58:06.355Z,6.71
2022-11-27T18:00:36.793Z,6.71
2022-11-27T18:03:07.735Z,6.69
2022-11-27T18:05:39.295Z,6.68
2022-11-27T18:08:12.324Z,6.62
2022-11-27T18:10:42.420Z,6.44
2022-11-27T18:13:12.835Z,6.48
2022-11-27T18:15:44.087Z,6.56
2022-11-27T18:18:14.554Z,6.55
2022-11-27T18:20:44.679Z,6.54
2022-11-27T18:23:17.833Z,6.51
2022-11-27T18:25:49.190Z,6.38
2022-11-27T18:28:20.255Z,6.44
2022-11-27T18:30:50.252Z,6.33
2022-11-27T18:33:20.535Z,6.47
2022-11-27T18:35:50.499Z,6.32
2022-11-27T18:38:23.467Z,6.28
2022-11-27T18:40:53.425Z,6.27
2022-11-27T18:43:23.733Z,6.22
2022-11-27T18:45:53.780Z,6.34
2022-11-27T18:48:24.092Z,6.39
2022-11-27T18:50:54.249Z,6.30
2022-11-27T18:53:27.314Z,6.27
2022-11-27T18:56:03.416Z,6.21
2022-11-27T18:58:35.157Z,6.16
2022-11-27T19:01:06.427Z,6.26
2022-11-27T19:03:42.666Z,6.25
2022-11-27T19:06:15.190Z,6.16
2022-11-27T19:08:49.023Z,6.10
2022-11-27T19:11:21.808Z,6.02
2022-11-27T19:13:54.169Z,6.01
2022-11-27T19:16:28.018Z,5.89
2022-11-27T19:18:59.862Z,5.96
2022-11-27T19:21:32.367Z,5.89
2022-11-27T19:24:06.688Z,5.93
2022-11-27T19:26:38.899Z,6.02
2022-11-27T19:29:11.410Z,5.97
2022-11-27T19:31:42.540Z,6.04
2022-11-27T19:34:14.914Z,5.95
2022-11-27T19:36:44.859Z,5.92
2022-11-27T19:39:18.598Z,5.93
2022-11-27T19:41:48.665Z,5.79
2022-11-27T19:44:19.333Z,5.71
2022-11-27T19:46:49.470Z,5.59
2022-11-27T19:49:21.427Z,5.57
2022-11-27T19:51:51.385Z,5.53
2022-11-27T19:54:24.533Z,5.47
2022-11-27T19:56:54.489Z,5.48
2022-11-27T19:59:27.697Z,5.40
2022-11-27T20:01:58.030Z,5.30
2022-11-27T20:04:28.436Z,5.32
2022-11-27T20:06:58.490Z,5.30
2022-11-27T20:09:31.379Z,5.26
2022-11-27T20:12:02.275Z,5.25
2022-11-27T20:14:32.560Z,5.23
2022-11-27T20:17:02.549Z,5.22
2022-11-27T20:19:32.830Z,5.14
2022-11-27T20:22:03.035Z,5.17
2022-11-27T20:24:44.087Z,5.10
2022-11-27T20:27:25.801Z,5.19
2022-11-27T20:29:59.996Z,5.14
2022-11-27T20:32:30.023Z,5.07
2022-11-27T20:35:00.303Z,5.17
2022-11-27T20:37:30.760Z,5.14
2022-11-27T20:40:03.738Z,5.15
2022-11-27T20:42:33.689Z,5.06
2022-11-27T20:45:05.183Z,5.04
2022-11-27T20:47:35.234Z,5.05
2022-11-27T20:50:05.479Z,5.06
2022-11-27T20:52:35.537Z,5.04
2022-11-27T20:55:09.710Z,5.04
2022-11-27T20:57:39.661Z,5.10
2022-11-27T21:00:12.002Z,5.00
2022-11-27T21:02:43.344Z,5.02
2022-11-27T21:05:13.704Z,5.08
2022-11-27T21:07:45.085Z,4.94
2022-11-27T21:10:20.147Z,4.93
2022-11-27T21:12:50.653Z,4.85
2022-11-27T21:15:21.459Z,4.92
2022-11-27T21:17:51.386Z,4.88
2022-11-27T21:20:21.868Z,4.86
2022-11-27T21:22:51.819Z,4.81
2022-11-27T21:25:25.719Z,4.83
2022-11-27T21:27:58.069Z,4.80
2022-11-27T21:30:28.946Z,4.71
2022-11-27T21:32:59.500Z,4.68
2022-11-27T21:35:32.750Z,4.66
2022-11-27T21:38:05.121Z,4.61
2022-11-27T21:40:39.471Z,4.59
2022-11-27T21:43:09.673Z,4.59
2022-11-27T21:45:40.353Z,4.63
2022-11-27T21:48:14.370Z,4.57
2022-11-27T21:50:45.273Z,4.62
2022-11-27T21:53:15.591Z,4.56
2022-11-27T21:55:49.392Z,4.56
2022-11-27T21:58:19.301Z,4.55
2022-11-27T22:00:52.236Z,4.59
2022-11-27T22:03:22.163Z,4.53
2022-11-27T22:06:01.573Z,4.44
2022-11-27T22:08:31.831Z,4.42
2022-11-27T22:11:07.853Z,4.47
2022-11-27T22:13:38.910Z,4.54
2022-11-27T22:16:12.214Z,4.45
2022-11-27T22:18:42.456Z,4.44
2022-11-27T22:21:14.240Z,4.42
2022-11-27T22:23:45.197Z,4.48
2022-11-27T22:26:20.143Z,4.41
2022-11-27T22:28:51.101Z,4.48
2022-11-27T22:31:24.492Z,4.59
2022-11-27T22:33:54.844Z,4.57
2022-11-27T22:36:27.432Z,4.46
2022-11-27T22:38:58.200Z,4.43
2022-11-27T22:41:32.863Z,4.44
2022-11-27T22:44:03.207Z,4.51
2022-11-27T22:46:36.887Z,4.38
2022-11-27T22:49:08.815Z,4.39
2022-11-27T22:51:41.927Z,4.38
2022-11-27T22:54:16.903Z,4.34
2022-11-27T22:56:50.044Z,4.30
2022-11-27T22:59:35.300Z,4.26
2022-11-27T23:02:06.364Z,4.23
2022-11-27T23:04:37.246Z,4.25
2022-11-27T23:07:08.646Z,4.23
2022-11-27T23:09:38.877Z,4.26
2022-11-27T23:12:11.889Z,4.31
2022-11-27T23:14:42.278Z,4.29
2022-11-27T23:17:12.842Z,4.25
2022-11-27T23:19:42.830Z,4.17
2022-11-27T23:22:13.257Z,4.25
2022-11-27T23:24:43.705Z,4.21
2022-11-27T23:27:16.764Z,4.09
2022-11-27T23:29:46.710Z,4.07
2022-11-27T23:32:17.117Z,4.13
2022-11-27T23:34:47.107Z,4.10
2022-11-27T23:37:17.494Z,4.10
2022-11-27T23:39:47.490Z,4.15
2022-11-27T23:42:20.585Z,4.20
2022-11-27T23:44:50.664Z,4.15
2022-11-27T23:47:21.086Z,4.16
2022-11-27T23:49:51.470Z,4.08
2022-11-27T23:52:22.038Z,4.12
2022-11-27T23:54:52.206Z,4.18
2022-11-27T23:57:25.356Z,4.19
2022-11-27T23:59:55.657Z,4.25
